CPX612 Details

Departure: Washington Dulles International Airport (KIAD)
Arrival: Long Island Mac Arthur Airport (KISP)
Route: WOOLY1 AGARD V44 SIE J121 SARDI CCC


Current Weather Information
KIAD 230652Z 00000KT 2SM R01R/2200VP6000FT BR SCT000 08/08 A2990 RMK AO2 TWR VIS 10 SLP125 T00830078 $
KISP 230656Z AUTO 20009KT 4SM -RA BR OVC004 18/18 A2973 RMK AO2 RAE39B48 SLP067 P0005 T01830183